createdAt,value
2018-12-15T00:02:41.642Z,0.7
2018-12-15T00:07:41.367Z,0.7
2018-12-15T00:12:29.073Z,0.8
2018-12-15T00:17:28.371Z,0.9
2018-12-15T00:22:28.271Z,0.8
2018-12-15T00:27:28.527Z,0.9
2018-12-15T00:32:27.594Z,0.9
2018-12-15T00:37:28.320Z,0.9
2018-12-15T00:42:27.834Z,0.9
2018-12-15T00:47:27.999Z,0.9
2018-12-15T00:52:28.410Z,0.9
2018-12-15T00:57:28.299Z,0.9
2018-12-15T01:02:27.523Z,0.9
2018-12-15T01:07:28.504Z,0.9
2018-12-15T01:12:27.565Z,0.9
2018-12-15T01:17:28.391Z,0.9
2018-12-15T01:22:28.172Z,1.0
2018-12-15T01:27:27.387Z,0.9
2018-12-15T01:32:27.931Z,0.9
2018-12-15T01:37:27.322Z,0.8
2018-12-15T01:42:28.707Z,0.8
2018-12-15T01:47:28.975Z,0.9
2018-12-15T01:52:28.052Z,0.8
2018-12-15T01:57:28.514Z,0.7
2018-12-15T02:02:28.001Z,0.6
2018-12-15T02:07:28.289Z,0.7
2018-12-15T02:12:28.571Z,0.6
2018-12-15T02:17:33.405Z,0.7
2018-12-15T02:22:27.551Z,0.8
2018-12-15T02:27:27.868Z,0.7
2018-12-15T02:32:27.378Z,0.8
2018-12-15T02:37:27.880Z,0.7
2018-12-15T02:42:27.710Z,0.7
2018-12-15T02:47:28.348Z,0.8
2018-12-15T02:52:27.260Z,0.8
2018-12-15T02:57:27.527Z,0.9
2018-12-15T03:02:27.648Z,0.8
2018-12-15T03:07:28.393Z,0.8
2018-12-15T03:17:28.156Z,0.8
2018-12-15T03:22:27.662Z,0.8
2018-12-15T03:27:28.626Z,0.8
2018-12-15T03:32:28.431Z,0.8
2018-12-15T03:37:27.402Z,0.8
2018-12-15T03:42:28.355Z,0.8
2018-12-15T03:47:27.728Z,0.8
2018-12-15T03:52:28.733Z,0.8
2018-12-15T03:57:27.962Z,0.8
2018-12-15T04:02:27.743Z,0.8
2018-12-15T04:07:28.084Z,0.7
2018-12-15T04:12:28.278Z,0.7
2018-12-15T04:17:28.155Z,0.8
2018-12-15T04:22:28.109Z,0.7
2018-12-15T04:27:28.021Z,0.8
2018-12-15T04:32:27.847Z,0.8
2018-12-15T04:37:28.466Z,0.8
2018-12-15T04:42:28.479Z,0.8
2018-12-15T04:47:27.814Z,0.7
2018-12-15T04:52:28.525Z,0.7
2018-12-15T04:57:27.585Z,0.7
2018-12-15T05:02:27.574Z,0.7
2018-12-15T05:07:28.268Z,0.7
2018-12-15T05:12:27.000Z,0.7
2018-12-15T05:17:28.603Z,0.7
2018-12-15T05:22:28.422Z,0.4
2018-12-15T05:27:27.585Z,0.4
2018-12-15T05:32:28.177Z,0.4
2018-12-15T05:37:28.322Z,0.4
2018-12-15T05:42:27.831Z,0.4
2018-12-15T05:47:28.215Z,0.4
2018-12-15T05:52:27.851Z,0.4
2018-12-15T05:57:27.744Z,0.3
2018-12-15T06:02:27.947Z,0.2
2018-12-15T06:07:28.659Z,0.1
2018-12-15T06:12:27.942Z,0.0
2018-12-15T06:17:28.533Z,0.0
2018-12-15T06:22:27.837Z,0.0
2018-12-15T06:27:27.716Z,0.0
2018-12-15T06:32:27.775Z,0.1
2018-12-15T06:37:27.403Z,0.1
2018-12-15T06:42:28.155Z,0.1
2018-12-15T06:47:28.005Z,0.2
2018-12-15T06:52:28.048Z,0.3
2018-12-15T06:57:28.092Z,0.3
2018-12-15T07:02:28.907Z,0.2
2018-12-15T07:07:28.903Z,0.3
2018-12-15T07:12:28.303Z,0.2
2018-12-15T07:17:28.644Z,0.2
2018-12-15T07:22:28.430Z,0.3
2018-12-15T07:27:28.746Z,0.2
2018-12-15T07:32:28.941Z,0.2
2018-12-15T07:37:28.836Z,0.1
2018-12-15T07:42:28.993Z,0.2
2018-12-15T07:47:28.592Z,0.3
2018-12-15T07:52:28.767Z,0.3
2018-12-15T07:57:28.142Z,0.3
2018-12-15T08:02:28.801Z,0.3
2018-12-15T08:07:28.992Z,0.3
2018-12-15T08:12:29.130Z,0.2
2018-12-15T08:17:28.169Z,0.3
2018-12-15T08:22:28.315Z,0.5
2018-12-15T08:27:30.205Z,0.5
2018-12-15T08:32:28.779Z,0.7
2018-12-15T08:37:29.201Z,0.8
2018-12-15T08:42:29.463Z,0.9
2018-12-15T08:47:28.912Z,0.9
2018-12-15T08:52:28.859Z,0.9
2018-12-15T08:57:28.846Z,0.9
2018-12-15T09:02:29.569Z,1.0
2018-12-15T09:07:28.716Z,1.0
2018-12-15T09:12:28.626Z,1.1
2018-12-15T09:17:28.033Z,1.1
2018-12-15T09:22:28.730Z,1.2
2018-12-15T09:27:28.786Z,1.1
2018-12-15T09:32:28.516Z,1.1
2018-12-15T09:37:28.591Z,1.2
2018-12-15T09:42:28.817Z,1.2
2018-12-15T09:47:28.781Z,1.2
2018-12-15T09:52:28.143Z,1.2
2018-12-15T09:57:28.930Z,1.2
2018-12-15T10:02:28.178Z,1.3
2018-12-15T10:07:28.993Z,1.2
2018-12-15T10:12:27.964Z,1.2
2018-12-15T10:17:28.712Z,1.2
2018-12-15T10:22:28.673Z,1.2
2018-12-15T10:27:28.338Z,1.3
2018-12-15T10:32:29.055Z,1.2
2018-12-15T10:37:28.412Z,1.3
2018-12-15T10:42:28.181Z,1.3
2018-12-15T10:47:27.956Z,1.4
2018-12-15T10:52:27.725Z,1.5
2018-12-15T10:57:28.690Z,1.5
2018-12-15T11:02:28.043Z,1.5
2018-12-15T11:07:29.544Z,1.5
2018-12-15T11:12:28.203Z,1.5
2018-12-15T11:17:29.280Z,1.6
2018-12-15T11:22:29.636Z,1.8
2018-12-15T11:27:29.002Z,1.9
2018-12-15T11:32:28.255Z,1.9
2018-12-15T11:37:28.174Z,1.9
2018-12-15T11:42:28.360Z,2.1
2018-12-15T11:47:28.431Z,2.2
2018-12-15T11:52:29.622Z,2.2
2018-12-15T11:57:29.090Z,2.3
2018-12-15T12:02:31.775Z,2.4
2018-12-15T12:07:28.621Z,2.4
2018-12-15T12:12:28.874Z,2.4
2018-12-15T12:17:28.664Z,2.5
2018-12-15T12:22:28.904Z,2.6
2018-12-15T12:27:28.296Z,2.6
2018-12-15T12:32:28.128Z,2.6
2018-12-15T12:37:29.156Z,2.5
2018-12-15T12:42:28.628Z,2.6
2018-12-15T12:47:28.767Z,2.7
2018-12-15T12:52:28.582Z,2.7
2018-12-15T12:57:27.944Z,2.7
2018-12-15T13:02:29.626Z,2.7
2018-12-15T13:07:28.503Z,2.7
2018-12-15T13:12:29.879Z,2.6
2018-12-15T13:17:28.562Z,2.6
2018-12-15T13:22:28.393Z,2.5
2018-12-15T13:27:27.899Z,2.4
2018-12-15T13:32:28.624Z,2.4
2018-12-15T13:37:29.724Z,2.3
2018-12-15T13:42:27.921Z,2.1
2018-12-15T13:47:29.409Z,1.7
2018-12-15T13:52:28.101Z,1.7
2018-12-15T13:57:29.565Z,1.7
2018-12-15T14:02:28.097Z,1.7
2018-12-15T14:07:28.407Z,1.7
2018-12-15T14:12:28.718Z,1.6
2018-12-15T14:17:28.640Z,1.6
2018-12-15T14:22:28.662Z,1.5
2018-12-15T14:27:29.104Z,1.4
2018-12-15T14:32:29.334Z,1.4
2018-12-15T14:37:28.709Z,1.4
2018-12-15T14:42:28.890Z,1.5
2018-12-15T14:47:28.743Z,1.5
2018-12-15T14:52:28.024Z,1.5
2018-12-15T14:57:28.180Z,1.6
2018-12-15T15:02:29.079Z,1.4
2018-12-15T15:07:30.402Z,1.4
2018-12-15T15:12:28.248Z,1.3
2018-12-15T15:17:28.675Z,1.4
2018-12-15T15:22:28.843Z,1.4
2018-12-15T15:27:28.082Z,1.3
2018-12-15T15:32:28.756Z,1.2
2018-12-15T15:37:27.686Z,1.1
2018-12-15T15:42:28.943Z,0.9
2018-12-15T15:47:28.862Z,0.9
2018-12-15T15:52:28.241Z,0.9
2018-12-15T15:57:27.379Z,0.8
2018-12-15T16:02:27.844Z,0.7
2018-12-15T16:07:28.457Z,0.7
2018-12-15T16:12:28.566Z,0.7
2018-12-15T16:17:28.169Z,0.7
2018-12-15T16:22:27.821Z,0.7
2018-12-15T16:27:28.621Z,0.7
2018-12-15T16:32:28.446Z,0.8
2018-12-15T16:37:28.991Z,0.7
2018-12-15T16:42:28.257Z,0.6
2018-12-15T16:47:28.175Z,0.6
2018-12-15T16:52:28.076Z,0.6
2018-12-15T16:57:28.055Z,0.6
2018-12-15T17:02:28.151Z,0.6
2018-12-15T17:07:29.115Z,0.6
2018-12-15T17:12:27.480Z,0.6
2018-12-15T17:17:28.149Z,0.6
2018-12-15T17:22:28.837Z,0.5
2018-12-15T17:27:28.124Z,0.6
2018-12-15T17:32:28.236Z,0.5
2018-12-15T17:37:27.827Z,0.6
2018-12-15T17:42:27.556Z,0.6
2018-12-15T17:47:28.648Z,0.4
2018-12-15T17:52:27.543Z,0.3
2018-12-15T17:57:28.403Z,0.3
2018-12-15T18:02:28.230Z,0.2
2018-12-15T18:07:27.821Z,0.2
2018-12-15T18:12:28.164Z,0.1
2018-12-15T18:17:28.304Z,0.1
2018-12-15T18:22:27.772Z,0.2
2018-12-15T18:27:27.929Z,0.1
2018-12-15T18:32:28.094Z,0.2
2018-12-15T18:37:29.488Z,0.1
2018-12-15T18:42:28.364Z,0.1
2018-12-15T18:47:27.850Z,0.0
2018-12-15T18:52:27.980Z,0.2
2018-12-15T18:57:28.246Z,0.2
2018-12-15T19:02:28.247Z,0.1
2018-12-15T19:07:28.442Z,0.2
2018-12-15T19:12:34.227Z,0.0
2018-12-15T19:17:28.862Z,-0.2
2018-12-15T19:22:31.128Z,-0.3
2018-12-15T19:27:27.721Z,-0.4
2018-12-15T19:32:27.311Z,-0.5
2018-12-15T19:37:28.184Z,-0.6
2018-12-15T19:42:28.562Z,-0.7
2018-12-15T19:47:27.550Z,-0.8
2018-12-15T19:52:26.938Z,-0.9
2018-12-15T19:57:27.681Z,-1.0
2018-12-15T20:02:27.634Z,-1.0
2018-12-15T20:07:27.994Z,-1.1
2018-12-15T20:12:28.457Z,-1.2
2018-12-15T20:17:28.119Z,-1.3
2018-12-15T20:22:27.909Z,-1.3
2018-12-15T20:27:27.772Z,-1.4
2018-12-15T20:32:27.676Z,-1.5
2018-12-15T20:37:28.081Z,-1.6
2018-12-15T20:42:27.510Z,-1.7
2018-12-15T20:47:27.927Z,-1.7
2018-12-15T20:52:27.470Z,-1.8
2018-12-15T20:57:27.837Z,-1.8
2018-12-15T21:02:28.223Z,-1.8
2018-12-15T21:07:28.626Z,-1.8
2018-12-15T21:12:28.297Z,-1.8
2018-12-15T21:17:28.137Z,-1.9
2018-12-15T21:22:28.195Z,-1.8
2018-12-15T21:27:27.552Z,-1.9
2018-12-15T21:32:27.811Z,-1.9
2018-12-15T21:37:28.044Z,-2.0
2018-12-15T21:42:28.335Z,-1.9
2018-12-15T21:47:27.520Z,-1.8
2018-12-15T21:52:27.382Z,-1.8
2018-12-15T21:57:27.942Z,-1.9
2018-12-15T22:02:28.641Z,-1.8
2018-12-15T22:07:29.593Z,-1.8
2018-12-15T22:12:27.343Z,-1.7
2018-12-15T22:17:28.309Z,-1.8
2018-12-15T22:22:28.366Z,-1.7
2018-12-15T22:27:28.001Z,-1.7
2018-12-15T22:32:27.623Z,-1.6
2018-12-15T22:37:27.627Z,-1.5
2018-12-15T22:42:27.806Z,-1.5
2018-12-15T22:47:28.262Z,-1.6
2018-12-15T22:52:28.841Z,-1.5
2018-12-15T22:57:28.495Z,-1.5
2018-12-15T23:02:27.772Z,-1.5
2018-12-15T23:07:28.184Z,-1.5
2018-12-15T23:12:29.015Z,-1.5
2018-12-15T23:23:05.602Z,-1.5
2018-12-15T23:28:03.671Z,-1.5
2018-12-15T23:33:04.172Z,-1.5
2018-12-15T23:38:03.416Z,-1.4
2018-12-15T23:43:03.782Z,-1.4
2018-12-15T23:48:03.243Z,-1.3
2018-12-15T23:53:04.072Z,-1.2
2018-12-15T23:58:03.999Z,-1.3
